Time;durP1;ratioP1;P1;durP2;ratioP2;P2;SDS_P1;SDS_P2;PMS_P1;PMS_P2;Temp;Humidity;BMP_temperature;BMP_pressure;BME280_temperature;BME280_humidity;BME280_pressure;Samples;Min_cycle;Max_cycle;Signal;HPM_P1;HPM_P2
2021/12/09 00:01:47;;;;;;;8.48;6.50;;;7.90;96.70;;;;;;4871878;29;20077;-69
2021/12/09 00:04:26;;;;;;;7.97;6.20;;;7.80;96.70;;;;;;4856795;29;20132;-69
2021/12/09 00:06:55;;;;;;;8.98;6.22;;;7.80;96.70;;;;;;4852485;29;20060;-69
2021/12/09 00:09:23;;;;;;;7.85;6.43;;;7.80;96.70;;;;;;4871066;29;20052;-69
2021/12/09 00:11:51;;;;;;;8.27;5.95;;;7.80;96.70;;;;;;4854470;29;20092;-69
2021/12/09 00:14:22;;;;;;;7.00;5.28;;;7.80;96.70;;;;;;4869398;29;20053;-69
2021/12/09 00:16:52;;;;;;;8.07;6.07;;;7.80;96.70;;;;;;4871812;29;20580;-69
2021/12/09 00:19:20;;;;;;;8.60;6.68;;;7.80;96.70;;;;;;4875230;29;20073;-69
2021/12/09 00:21:48;;;;;;;8.23;6.30;;;7.80;96.70;;;;;;4854386;29;20158;-69
2021/12/09 00:24:16;;;;;;;6.80;5.60;;;7.70;96.70;;;;;;4873490;29;20112;-69
2021/12/09 00:26:45;;;;;;;6.97;5.35;;;7.70;96.70;;;;;;4854562;29;20037;-69
2021/12/09 00:29:16;;;;;;;8.77;6.22;;;7.70;96.70;;;;;;4855270;29;20523;-69
2021/12/09 00:31:47;;;;;;;7.75;5.70;;;7.70;96.70;;;;;;4870082;29;20101;-69
2021/12/09 00:34:19;;;;;;;7.68;5.60;;;7.70;96.70;;;;;;4872399;29;20053;-69
2021/12/09 00:37:01;;;;;;;8.52;5.95;;;7.70;96.70;;;;;;4868852;29;20060;-69
2021/12/09 00:39:29;;;;;;;8.63;6.55;;;7.80;96.70;;;;;;4872141;29;20077;-69
2021/12/09 00:41:57;;;;;;;6.70;6.05;;;7.70;96.70;;;;;;4872505;29;20560;-69
2021/12/09 00:44:25;;;;;;;10.07;6.35;;;7.70;96.70;;;;;;4871210;29;20128;-68
2021/12/09 00:46:53;;;;;;;9.70;7.07;;;7.70;96.70;;;;;;4855722;29;20045;-68
2021/12/09 00:49:23;;;;;;;8.95;7.30;;;7.70;96.70;;;;;;4855816;29;20153;-69
2021/12/09 00:51:51;;;;;;;10.95;7.63;;;7.70;96.70;;;;;;4853972;29;20044;-69
2021/12/09 00:54:19;;;;;;;10.05;7.90;;;7.70;96.70;;;;;;4854465;29;20052;-68
2021/12/09 00:56:47;;;;;;;8.70;7.38;;;7.70;96.70;;;;;;4870576;29;20159;-68
2021/12/09 00:59:14;;;;;;;13.90;8.43;;;7.70;96.70;;;;;;4868145;29;20064;-69
2021/12/09 01:01:42;;;;;;;9.90;7.90;;;7.70;96.70;;;;;;4868283;29;20124;-68
2021/12/09 01:04:11;;;;;;;10.15;7.85;;;7.70;96.70;;;;;;4870226;29;20554;-68
2021/12/09 01:06:40;;;;;;;9.30;8.13;;;7.70;96.70;;;;;;4870870;29;20353;-68
2021/12/09 01:09:08;;;;;;;9.45;7.88;;;7.70;96.70;;;;;;4867199;29;20057;-69
2021/12/09 01:11:36;;;;;;;9.45;7.53;;;7.70;96.70;;;;;;4867759;29;20080;-68
2021/12/09 01:14:04;;;;;;;13.13;8.73;;;7.60;96.70;;;;;;4853739;29;20048;-68
2021/12/09 01:16:32;;;;;;;10.05;8.43;;;7.60;96.70;;;;;;4869316;29;20057;-68
2021/12/09 01:19:00;;;;;;;9.93;8.02;;;7.60;96.70;;;;;;4852023;29;20061;-68
2021/12/09 01:21:29;;;;;;;10.43;8.60;;;7.60;96.70;;;;;;4854063;29;20072;-68
2021/12/09 01:23:58;;;;;;;11.40;9.30;;;7.60;96.70;;;;;;4852902;29;20048;-68
2021/12/09 01:26:27;;;;;;;12.10;8.73;;;7.60;96.70;;;;;;4854906;29;20059;-68
2021/12/09 01:29:01;;;;;;;10.82;8.18;;;7.60;96.70;;;;;;4853447;29;20492;-69
2021/12/09 01:31:36;;;;;;;10.75;8.20;;;7.60;96.70;;;;;;4873545;29;20052;-70
2021/12/09 01:34:07;;;;;;;12.07;9.32;;;7.60;96.70;;;;;;4871086;29;20630;-70
2021/12/09 01:36:36;;;;;;;9.93;7.85;;;7.60;96.70;;;;;;4870738;29;20492;-70
2021/12/09 01:39:06;;;;;;;9.80;8.07;;;7.60;96.70;;;;;;4854706;29;20429;-70
2021/12/09 01:41:34;;;;;;;9.40;8.05;;;7.60;96.70;;;;;;4839555;29;20453;-70
2021/12/09 01:44:02;;;;;;;9.68;7.93;;;7.70;96.70;;;;;;4859063;29;20049;-70
2021/12/09 01:46:30;;;;;;;8.73;7.82;;;7.60;96.70;;;;;;4870673;29;20448;-70
2021/12/09 01:48:58;;;;;;;9.15;7.90;;;7.60;96.70;;;;;;4853555;29;20049;-70
2021/12/09 01:51:26;;;;;;;8.50;7.60;;;7.50;96.70;;;;;;4868988;29;20077;-70
2021/12/09 01:53:55;;;;;;;8.45;7.45;;;7.50;96.70;;;;;;4871159;29;20445;-70
2021/12/09 01:56:26;;;;;;;9.48;8.00;;;7.60;96.70;;;;;;4868877;29;20124;-70
2021/12/09 01:58:58;;;;;;;9.35;7.45;;;7.50;96.70;;;;;;4869043;29;20049;-70
2021/12/09 02:01:26;;;;;;;10.00;7.85;;;7.50;96.70;;;;;;4852958;29;20079;-70
2021/12/09 02:03:55;;;;;;;13.25;7.53;;;7.60;96.70;;;;;;4854227;29;20101;-70
2021/12/09 02:06:25;;;;;;;7.90;7.10;;;7.60;96.70;;;;;;4868118;29;20056;-70
2021/12/09 02:08:54;;;;;;;9.05;7.53;;;7.60;96.70;;;;;;4871311;29;20045;-70
2021/12/09 02:11:24;;;;;;;9.02;6.82;;;7.60;96.70;;;;;;4870844;29;20139;-70
2021/12/09 02:13:56;;;;;;;7.97;6.88;;;7.60;96.70;;;;;;4866174;29;20521;-70
2021/12/09 02:16:25;;;;;;;7.50;6.20;;;7.60;96.70;;;;;;4853067;29;20109;-70
2021/12/09 02:18:53;;;;;;;7.78;6.68;;;7.60;96.70;;;;;;4875082;29;20433;-70
2021/12/09 02:21:24;;;;;;;7.45;4.57;;;7.60;96.70;;;;;;4851987;29;20571;-70
2021/12/09 02:23:54;;;;;;;4.82;3.67;;;7.60;96.70;;;;;;4854334;29;20057;-70
2021/12/09 02:26:26;;;;;;;4.57;3.63;;;7.60;96.70;;;;;;4853677;29;20057;-70
2021/12/09 02:28:56;;;;;;;4.50;3.15;;;7.60;96.70;;;;;;4853656;29;20102;-70
2021/12/09 02:31:25;;;;;;;3.70;3.10;;;7.60;96.70;;;;;;4851433;29;20048;-70
2021/12/09 02:33:54;;;;;;;3.80;2.78;;;7.70;96.70;;;;;;4871216;29;20487;-70
2021/12/09 02:36:24;;;;;;;4.20;2.50;;;7.70;96.70;;;;;;4866553;29;20140;-70
2021/12/09 02:38:52;;;;;;;3.28;2.00;;;7.70;96.70;;;;;;4871233;29;20049;-70
2021/12/09 02:41:23;;;;;;;2.53;1.77;;;7.70;96.70;;;;;;4870623;29;20069;-70
2021/12/09 02:43:55;;;;;;;3.92;1.45;;;7.70;96.70;;;;;;4853710;29;20049;-70
2021/12/09 02:46:23;;;;;;;1.92;1.67;;;7.60;96.70;;;;;;4850430;29;20683;-70
2021/12/09 02:48:51;;;;;;;2.25;1.60;;;7.60;96.70;;;;;;4870108;29;20526;-70
2021/12/09 02:51:20;;;;;;;2.38;1.73;;;7.60;96.70;;;;;;4868958;29;20101;-70
2021/12/09 02:53:49;;;;;;;3.03;1.55;;;7.60;96.70;;;;;;4869936;29;20101;-70
2021/12/09 02:56:20;;;;;;;3.17;1.90;;;7.50;96.70;;;;;;4870950;29;20407;-70
2021/12/09 02:58:48;;;;;;;4.57;2.60;;;7.50;96.70;;;;;;4868188;29;20075;-70
2021/12/09 03:01:21;;;;;;;3.33;2.70;;;7.50;96.70;;;;;;4870974;29;20045;-70
2021/12/09 03:03:54;;;;;;;3.88;3.20;;;7.50;96.70;;;;;;4852858;29;20952;-70
2021/12/09 03:06:27;;;;;;;6.10;4.43;;;7.40;96.70;;;;;;4869530;29;20077;-70
2021/12/09 03:08:57;;;;;;;6.78;5.07;;;7.40;96.70;;;;;;4868814;29;20603;-70
2021/12/09 03:11:25;;;;;;;5.57;4.97;;;7.40;96.70;;;;;;4871184;29;20052;-70
2021/12/09 03:13:53;;;;;;;5.78;5.18;;;7.30;96.70;;;;;;4869162;29;20049;-70
2021/12/09 03:16:22;;;;;;;6.50;5.78;;;7.30;96.70;;;;;;4870900;29;20053;-70
2021/12/09 03:18:53;;;;;;;5.97;5.35;;;7.30;96.70;;;;;;4873832;29;20530;-70
2021/12/09 03:21:24;;;;;;;7.00;6.25;;;7.30;96.70;;;;;;4872790;29;20059;-70
2021/12/09 03:23:53;;;;;;;6.43;5.55;;;7.30;96.70;;;;;;4872030;29;20064;-70
2021/12/09 03:26:29;;;;;;;6.95;5.90;;;7.30;96.70;;;;;;4874478;29;20136;-71
2021/12/09 03:28:59;;;;;;;7.75;6.32;;;7.30;96.70;;;;;;4871875;29;20123;-70
2021/12/09 03:31:27;;;;;;;8.65;6.45;;;7.30;96.70;;;;;;4874703;29;20049;-70
2021/12/09 03:33:56;;;;;;;7.38;6.22;;;7.30;96.70;;;;;;4872897;29;20045;-70
2021/12/09 03:36:28;;;;;;;6.63;5.45;;;7.30;96.70;;;;;;4855526;29;20536;-70
2021/12/09 03:38:57;;;;;;;5.82;5.13;;;7.30;96.70;;;;;;4855953;29;20063;-70
2021/12/09 03:41:27;;;;;;;5.30;4.72;;;7.30;96.70;;;;;;4873577;29;20057;-70
2021/12/09 03:43:55;;;;;;;5.80;5.00;;;7.20;96.70;;;;;;4874189;29;20052;-70
2021/12/09 03:46:23;;;;;;;8.02;4.78;;;7.30;96.70;;;;;;4873344;29;20041;-70
2021/12/09 03:48:51;;;;;;;5.30;4.63;;;7.30;96.70;;;;;;4851848;29;20464;-70
2021/12/09 03:51:20;;;;;;;5.43;4.22;;;7.30;96.70;;;;;;4871546;29;20411;-70
2021/12/09 03:53:48;;;;;;;5.70;3.95;;;7.20;96.70;;;;;;4873084;29;20137;-70
2021/12/09 03:56:16;;;;;;;3.13;2.83;;;7.20;96.70;;;;;;4855840;29;20488;-70
2021/12/09 03:58:46;;;;;;;3.58;2.53;;;7.30;96.70;;;;;;4855886;29;20056;-70
2021/12/09 04:01:14;;;;;;;3.72;2.38;;;7.20;96.70;;;;;;4856055;29;20088;-70
2021/12/09 04:03:42;;;;;;;2.45;1.80;;;7.20;96.70;;;;;;4872654;29;20124;-70
2021/12/09 04:06:10;;;;;;;2.08;1.45;;;7.20;96.70;;;;;;4867553;29;20041;-70
2021/12/09 04:08:38;;;;;;;1.65;1.45;;;7.20;96.70;;;;;;4869909;29;20444;-70
2021/12/09 04:11:06;;;;;;;2.60;0.90;;;7.30;96.70;;;;;;4850697;29;20537;-70
2021/12/09 04:13:34;;;;;;;0.85;0.60;;;7.30;96.70;;;;;;4873643;29;20041;-70
2021/12/09 04:16:05;;;;;;;2.83;1.70;;;7.30;96.70;;;;;;4850770;29;20061;-70
2021/12/09 04:18:33;;;;;;;1.60;0.80;;;7.30;96.70;;;;;;4855651;29;20120;-70
2021/12/09 04:21:02;;;;;;;1.20;0.82;;;7.40;96.70;;;;;;4870414;29;20045;-70
2021/12/09 04:23:30;;;;;;;1.58;0.95;;;7.40;96.70;;;;;;4871325;29;20125;-70
2021/12/09 04:25:58;;;;;;;1.27;0.60;;;7.40;96.70;;;;;;4871100;29;20041;-70
2021/12/09 04:28:26;;;;;;;1.58;0.40;;;7.40;96.70;;;;;;4868627;29;20531;-70
2021/12/09 04:30:54;;;;;;;1.23;0.77;;;7.40;96.70;;;;;;4871180;29;20626;-70
2021/12/09 04:33:24;;;;;;;0.93;0.50;;;7.40;96.70;;;;;;4856263;29;20065;-70
2021/12/09 04:35:52;;;;;;;0.80;0.50;;;7.50;96.70;;;;;;4855659;29;20053;-70
2021/12/09 04:38:19;;;;;;;1.08;0.73;;;7.50;96.70;;;;;;4871164;29;20480;-70
2021/12/09 04:40:47;;;;;;;0.82;0.80;;;7.50;96.70;;;;;;4855587;29;20041;-70
2021/12/09 04:43:15;;;;;;;3.03;0.60;;;7.40;96.70;;;;;;4854961;29;20055;-70
2021/12/09 04:45:43;;;;;;;1.00;0.60;;;7.40;96.70;;;;;;4855138;29;20053;-70
2021/12/09 04:48:11;;;;;;;0.60;0.50;;;7.40;96.70;;;;;;4876408;29;20045;-70
2021/12/09 04:50:42;;;;;;;0.82;0.50;;;7.40;96.70;;;;;;4855253;29;20049;-70
2021/12/09 04:53:11;;;;;;;0.80;0.40;;;7.30;96.70;;;;;;4853512;29;20143;-70
2021/12/09 04:55:38;;;;;;;0.85;0.45;;;7.30;96.70;;;;;;4852751;29;20460;-70
2021/12/09 04:58:07;;;;;;;0.60;0.40;;;7.30;96.70;;;;;;4854958;29;20048;-70
2021/12/09 05:00:38;;;;;;;1.77;0.60;;;7.30;96.70;;;;;;4868560;29;20128;-70
2021/12/09 05:03:09;;;;;;;1.13;0.38;;;7.40;96.70;;;;;;4855503;29;20461;-70
2021/12/09 05:05:39;;;;;;;1.02;0.47;;;7.30;96.70;;;;;;4871866;29;20385;-70
2021/12/09 05:08:10;;;;;;;1.05;0.50;;;7.40;96.70;;;;;;4870625;29;20073;-70
2021/12/09 05:13:26;;;;;;;1.20;0.32;;;7.40;96.70;;;;;;4870856;29;20110;-70
2021/12/09 05:15:56;;;;;;;1.40;0.50;;;7.40;96.70;;;;;;4872722;29;20501;-70
2021/12/09 05:18:25;;;;;;;0.57;0.30;;;7.40;96.70;;;;;;4873114;29;20135;-70
2021/12/09 05:20:54;;;;;;;1.05;0.52;;;7.40;96.70;;;;;;4857134;29;20140;-70
2021/12/09 05:23:24;;;;;;;1.95;0.77;;;7.30;96.70;;;;;;4853118;29;20056;-70
2021/12/09 05:25:52;;;;;;;2.10;1.00;;;7.30;96.70;;;;;;4854996;29;20564;-70
2021/12/09 05:28:27;;;;;;;0.80;0.40;;;7.30;96.70;;;;;;4867657;29;20045;-70
2021/12/09 05:33:42;;;;;;;0.90;0.40;;;7.30;96.70;;;;;;4854378;29;20053;-70
2021/12/09 05:36:10;;;;;;;0.93;0.30;;;7.30;96.70;;;;;;4872183;29;20049;-70
2021/12/09 05:38:39;;;;;;;0.68;0.47;;;7.30;96.70;;;;;;4869560;29;20045;-70
2021/12/09 05:41:08;;;;;;;0.40;0.30;;;7.30;96.70;;;;;;4854669;29;20123;-70
2021/12/09 05:43:36;;;;;;;0.52;0.40;;;7.40;96.70;;;;;;4838239;29;20040;-70
2021/12/09 05:46:04;;;;;;;0.82;0.32;;;7.40;96.70;;;;;;4853094;29;20097;-70
2021/12/09 05:48:32;;;;;;;2.28;0.95;;;7.30;96.70;;;;;;4872236;29;20064;-70
2021/12/09 05:51:01;;;;;;;0.88;0.60;;;7.30;96.70;;;;;;4871221;29;20060;-70
2021/12/09 05:53:28;;;;;;;1.25;0.50;;;7.30;96.70;;;;;;4868367;29;20056;-70
2021/12/09 05:55:58;;;;;;;1.27;0.65;;;7.30;96.70;;;;;;4854995;29;20179;-70
2021/12/09 05:58:25;;;;;;;0.90;0.43;;;7.30;96.70;;;;;;4852821;29;20515;-70
2021/12/09 06:00:53;;;;;;;1.00;0.50;;;7.30;96.70;;;;;;4871767;29;20057;-70
2021/12/09 06:03:21;;;;;;;0.80;0.30;;;7.30;96.70;;;;;;4870518;29;20251;-70
2021/12/09 06:05:50;;;;;;;2.35;0.50;;;7.30;96.70;;;;;;4871100;29;20431;-70
2021/12/09 06:08:18;;;;;;;1.90;0.60;;;7.20;96.70;;;;;;4867752;29;20061;-70
2021/12/09 06:10:46;;;;;;;1.70;0.50;;;7.20;96.70;;;;;;4853660;29;20412;-70
2021/12/09 06:13:16;;;;;;;1.50;0.50;;;7.20;96.70;;;;;;4868581;29;20049;-71
2021/12/09 06:15:44;;;;;;;0.50;0.30;;;7.20;96.70;;;;;;4853345;29;20041;-70
2021/12/09 06:18:12;;;;;;;2.67;0.60;;;7.20;96.70;;;;;;4872996;29;20048;-70
2021/12/09 06:20:40;;;;;;;1.25;0.40;;;7.30;96.70;;;;;;4868764;29;20059;-70
2021/12/09 06:23:08;;;;;;;2.03;0.80;;;7.30;96.70;;;;;;4851222;29;20068;-70
2021/12/09 06:25:35;;;;;;;1.83;0.70;;;7.20;96.70;;;;;;4870407;29;20048;-70
2021/12/09 06:28:03;;;;;;;1.75;0.60;;;7.10;96.70;;;;;;4853869;29;20084;-70
2021/12/09 06:30:32;;;;;;;1.40;0.43;;;7.20;96.70;;;;;;4868928;29;20583;-71
2021/12/09 06:33:01;;;;;;;1.83;0.50;;;7.10;96.70;;;;;;4852734;29;20082;-70
2021/12/09 06:35:29;;;;;;;1.05;0.60;;;7.10;96.70;;;;;;4869962;29;20072;-70
2021/12/09 06:37:56;;;;;;;2.05;0.93;;;7.10;96.70;;;;;;4852658;29;20065;-70
2021/12/09 06:40:24;;;;;;;1.42;0.70;;;7.10;96.70;;;;;;4852868;29;20545;-70
2021/12/09 06:42:53;;;;;;;2.45;0.57;;;7.10;96.70;;;;;;4870659;29;20143;-70
2021/12/09 06:45:23;;;;;;;2.53;0.47;;;7.10;96.70;;;;;;4869012;29;20539;-70
2021/12/09 06:47:53;;;;;;;0.90;0.43;;;7.20;96.70;;;;;;4854255;29;20053;-70
2021/12/09 06:50:23;;;;;;;0.85;0.40;;;7.20;96.70;;;;;;4853150;29;20051;-70
2021/12/09 06:52:51;;;;;;;1.20;0.47;;;7.20;96.70;;;;;;4853460;29;20108;-70
2021/12/09 06:55:20;;;;;;;1.10;0.30;;;7.30;96.70;;;;;;4873707;29;20049;-70
2021/12/09 06:57:49;;;;;;;1.88;0.73;;;7.30;96.70;;;;;;4857946;29;20052;-70
2021/12/09 07:00:19;;;;;;;1.38;0.30;;;7.30;96.70;;;;;;4872369;29;20520;-70
2021/12/09 07:02:47;;;;;;;1.00;0.40;;;7.30;96.70;;;;;;4874534;29;20060;-70
2021/12/09 07:05:18;;;;;;;2.17;0.55;;;7.30;96.70;;;;;;4873175;29;20045;-71
2021/12/09 07:07:46;;;;;;;1.77;0.30;;;7.30;96.70;;;;;;4874197;29;20602;-69
2021/12/09 07:10:14;;;;;;;1.95;0.40;;;7.30;96.70;;;;;;4857751;29;20101;-70
2021/12/09 07:12:42;;;;;;;2.63;0.90;;;7.40;96.70;;;;;;4874567;29;20579;-70
2021/12/09 07:15:13;;;;;;;1.75;0.70;;;7.40;96.70;;;;;;4864672;29;20041;-70
2021/12/09 07:17:41;;;;;;;2.22;0.85;;;7.40;96.70;;;;;;4876097;29;20044;-70
2021/12/09 07:20:12;;;;;;;2.17;0.68;;;7.40;96.70;;;;;;4856052;29;20059;-70
2021/12/09 07:22:41;;;;;;;12.18;6.18;;;7.40;96.70;;;;;;4874357;29;20347;-70
2021/12/09 07:25:09;;;;;;;10.40;7.07;;;7.50;96.70;;;;;;4837705;29;20523;-70
2021/12/09 07:27:36;;;;;;;8.52;6.22;;;7.50;96.70;;;;;;4873823;29;20511;-70
2021/12/09 07:30:06;;;;;;;5.25;3.05;;;7.50;96.70;;;;;;4872708;29;20258;-70
2021/12/09 07:32:34;;;;;;;4.03;1.95;;;7.50;96.70;;;;;;4856370;29;20064;-70
2021/12/09 07:35:04;;;;;;;4.88;1.42;;;7.50;96.70;;;;;;4876747;29;20113;-70
2021/12/09 07:37:32;;;;;;;4.00;1.60;;;7.50;96.70;;;;;;4856806;29;20771;-70
2021/12/09 07:40:01;;;;;;;3.47;1.35;;;7.50;96.70;;;;;;4855254;29;20056;-70
2021/12/09 07:42:29;;;;;;;5.40;1.40;;;7.50;96.70;;;;;;4873157;29;20068;-71
2021/12/09 07:45:01;;;;;;;3.92;1.30;;;7.50;96.70;;;;;;4855894;29;20060;-71
2021/12/09 07:47:29;;;;;;;4.95;1.70;;;7.60;96.70;;;;;;4857533;29;20035;-71
2021/12/09 07:49:56;;;;;;;4.13;1.35;;;7.60;96.70;;;;;;4857414;29;20044;-70
2021/12/09 07:52:24;;;;;;;4.97;1.30;;;7.60;96.70;;;;;;4873357;29;20499;-71
2021/12/09 07:54:52;;;;;;;3.65;1.52;;;7.60;96.70;;;;;;4854842;29;20052;-70
2021/12/09 07:57:21;;;;;;;3.22;1.55;;;7.60;96.70;;;;;;4873125;29;20044;-70
2021/12/09 07:59:48;;;;;;;3.10;1.20;;;7.60;96.70;;;;;;4872384;29;20053;-70
2021/12/09 08:02:16;;;;;;;3.67;1.85;;;7.70;96.70;;;;;;4872586;29;20523;-70
2021/12/09 08:04:44;;;;;;;3.17;1.35;;;7.70;96.70;;;;;;4869719;29;20041;-70
2021/12/09 08:07:12;;;;;;;2.85;1.10;;;7.80;96.70;;;;;;4871784;29;20083;-71
2021/12/09 08:09:40;;;;;;;2.58;1.50;;;7.80;96.70;;;;;;4871610;29;20045;-70
2021/12/09 08:12:09;;;;;;;3.53;1.83;;;7.90;96.70;;;;;;4855618;29;20051;-70
2021/12/09 08:14:39;;;;;;;2.53;1.80;;;7.90;96.70;;;;;;4872989;29;20048;-70
2021/12/09 08:17:22;;;;;;;1.80;1.25;;;7.90;96.70;;;;;;4853169;29;20101;-71
2021/12/09 08:19:51;;;;;;;1.95;1.40;;;7.90;96.70;;;;;;4872541;29;20144;-71
2021/12/09 08:22:19;;;;;;;2.90;1.67;;;7.90;96.70;;;;;;4872011;29;20049;-71
2021/12/09 08:24:47;;;;;;;3.05;1.50;;;8.00;96.70;;;;;;4856956;29;20113;-71
2021/12/09 08:27:16;;;;;;;3.15;1.25;;;8.00;96.70;;;;;;4871418;29;20041;-70
2021/12/09 08:29:45;;;;;;;2.13;1.48;;;8.00;96.70;;;;;;4855654;29;20359;-70
2021/12/09 08:32:13;;;;;;;4.65;1.90;;;8.00;96.70;;;;;;4854459;29;20049;-71
2021/12/09 08:34:42;;;;;;;3.15;2.13;;;7.90;96.70;;;;;;4855711;29;21130;-71
2021/12/09 08:37:11;;;;;;;4.93;2.10;;;7.90;96.70;;;;;;4872222;29;20041;-71
2021/12/09 08:39:39;;;;;;;5.22;2.78;;;7.90;96.70;;;;;;4870891;29;20061;-70
2021/12/09 08:42:08;;;;;;;3.15;2.03;;;8.00;96.70;;;;;;4871638;29;20041;-70
2021/12/09 08:44:36;;;;;;;3.50;2.30;;;8.10;96.70;;;;;;4871117;29;20048;-70
2021/12/09 08:47:07;;;;;;;3.00;1.58;;;8.10;96.70;;;;;;4871158;29;20048;-71
2021/12/09 08:49:36;;;;;;;2.47;1.50;;;8.10;96.70;;;;;;4874528;29;20056;-71
2021/12/09 08:52:06;;;;;;;3.60;1.55;;;8.20;96.70;;;;;;4872310;29;20057;-70
2021/12/09 08:54:34;;;;;;;3.60;1.98;;;8.20;96.70;;;;;;4870376;29;20041;-70
2021/12/09 08:57:04;;;;;;;2.33;1.70;;;8.30;96.70;;;;;;4872190;29;20045;-70
2021/12/09 08:59:32;;;;;;;1.75;1.38;;;8.20;96.70;;;;;;4870809;29;20052;-71
2021/12/09 09:02:09;;;;;;;5.47;1.50;;;8.30;96.70;;;;;;4870473;29;20120;-70
2021/12/09 09:04:38;;;;;;;2.85;1.60;;;8.30;96.70;;;;;;4855020;29;20060;-71
2021/12/09 09:07:08;;;;;;;1.95;1.00;;;8.20;96.70;;;;;;4871871;29;20067;-70
2021/12/09 09:09:38;;;;;;;2.42;1.10;;;8.30;96.70;;;;;;4869895;29;20052;-70
2021/12/09 09:12:09;;;;;;;1.35;1.13;;;8.30;96.70;;;;;;4853319;29;20531;-70
2021/12/09 09:14:37;;;;;;;3.53;2.10;;;8.40;96.70;;;;;;4852600;29;20990;-70
2021/12/09 09:17:05;;;;;;;4.03;1.50;;;8.50;96.70;;;;;;4871589;29;20520;-70
2021/12/09 09:19:35;;;;;;;2.42;1.63;;;8.60;96.70;;;;;;4871193;29;20052;-71
2021/12/09 09:22:04;;;;;;;2.33;1.25;;;8.60;96.70;;;;;;4872169;29;20208;-70
2021/12/09 09:24:33;;;;;;;3.70;2.10;;;8.60;96.70;;;;;;4867505;29;20061;-71
2021/12/09 09:27:02;;;;;;;3.22;1.98;;;8.50;96.70;;;;;;4869895;29;20045;-70
2021/12/09 09:29:32;;;;;;;4.45;2.33;;;8.60;96.70;;;;;;4838489;29;20051;-70
2021/12/09 09:32:01;;;;;;;3.10;2.13;;;8.70;96.70;;;;;;4872249;29;20057;-70
2021/12/09 09:34:29;;;;;;;2.72;1.85;;;8.80;96.70;;;;;;4870997;29;20523;-71
2021/12/09 09:36:59;;;;;;;4.40;2.30;;;8.80;96.70;;;;;;4854879;29;20148;-70
2021/12/09 09:39:30;;;;;;;3.30;1.90;;;8.70;96.70;;;;;;4851633;29;20076;-71
2021/12/09 09:44:47;;;;;;;4.13;2.65;;;8.50;96.70;;;;;;4868633;29;20041;-70
2021/12/09 09:47:16;;;;;;;4.07;3.42;;;8.60;96.70;;;;;;4869743;29;20050;-71
2021/12/09 09:49:50;;;;;;;3.13;2.30;;;8.60;96.70;;;;;;4870492;29;20049;-71
2021/12/09 09:52:20;;;;;;;3.78;2.25;;;8.70;96.70;;;;;;4853947;29;20928;-71
2021/12/09 09:54:50;;;;;;;3.03;2.10;;;8.70;96.70;;;;;;4853067;29;20316;-70
2021/12/09 09:57:19;;;;;;;4.88;1.80;;;8.70;96.70;;;;;;4854113;29;20453;-71
2021/12/09 09:59:47;;;;;;;2.65;1.48;;;8.80;96.70;;;;;;4867010;29;20384;-70
2021/12/09 10:02:16;;;;;;;4.30;1.98;;;8.80;96.70;;;;;;4870425;29;20056;-71
2021/12/09 10:04:48;;;;;;;2.53;1.98;;;8.80;96.70;;;;;;4871166;29;20061;-71
2021/12/09 10:07:22;;;;;;;3.70;2.50;;;9.00;96.70;;;;;;4853794;29;20049;-70
2021/12/09 10:09:52;;;;;;;4.68;2.22;;;9.10;96.70;;;;;;4868129;29;20037;-70
2021/12/09 10:12:21;;;;;;;4.53;2.40;;;9.40;96.70;;;;;;4852973;29;20052;-70
2021/12/09 10:14:51;;;;;;;13.77;9.52;;;9.60;96.70;;;;;;4870811;29;20125;-70
2021/12/09 10:17:21;;;;;;;8.98;4.13;;;9.90;96.70;;;;;;4868333;29;20053;-71
2021/12/09 10:20:10;;;;;;;4.50;2.90;;;9.80;96.70;;;;;;4870713;29;20488;-71
2021/12/09 10:22:40;;;;;;;7.20;2.72;;;9.70;96.70;;;;;;4853966;29;20059;-71
2021/12/09 10:25:19;;;;;;;4.50;2.65;;;9.60;96.70;;;;;;4869164;29;20056;-71
2021/12/09 10:28:00;;;;;;;3.28;2.25;;;9.50;96.70;;;;;;4852899;29;20135;-71
2021/12/09 10:30:30;;;;;;;4.80;1.70;;;9.40;96.70;;;;;;4869642;29;20122;-71
2021/12/09 10:33:02;;;;;;;4.95;1.95;;;9.10;96.70;;;;;;4854100;29;20476;-71
2021/12/09 10:35:31;;;;;;;3.38;1.23;;;9.00;96.70;;;;;;4870357;29;20111;-70
2021/12/09 10:38:03;;;;;;;2.72;1.10;;;8.90;96.70;;;;;;4871191;29;20147;-70
2021/12/09 10:40:32;;;;;;;32.75;19.50;;;8.90;96.70;;;;;;4867308;29;20044;-70
2021/12/09 10:43:03;;;;;;;32.47;20.38;;;9.10;96.70;;;;;;4837943;29;20041;-70
2021/12/09 10:45:34;;;;;;;19.83;13.30;;;9.20;96.70;;;;;;4851030;29;20052;-71
2021/12/09 10:48:31;;;;;;;10.70;7.60;;;9.30;96.70;;;;;;4857930;29;20502;-70
2021/12/09 10:53:46;;;;;;;5.45;3.88;;;9.50;96.70;;;;;;4871234;29;20049;-70
2021/12/09 10:56:26;;;;;;;4.30;2.35;;;9.60;96.70;;;;;;4868833;29;20041;-71
2021/12/09 10:58:54;;;;;;;2.40;1.30;;;9.80;96.70;;;;;;4853676;29;20057;-71
2021/12/09 11:01:24;;;;;;;2.88;1.17;;;9.70;96.70;;;;;;4853091;29;20045;-70
2021/12/09 11:03:56;;;;;;;0.77;0.45;;;9.70;96.70;;;;;;4871059;29;20123;-71
2021/12/09 11:06:32;;;;;;;2.13;1.50;;;9.80;96.70;;;;;;4852460;29;20079;-70
2021/12/09 11:09:06;;;;;;;2.58;1.40;;;9.90;96.70;;;;;;4853694;29;20460;-70
2021/12/09 11:11:36;;;;;;;2.03;1.58;;;9.90;96.70;;;;;;4868578;29;20084;-70
2021/12/09 11:14:10;;;;;;;2.28;0.80;;;10.10;96.70;;;;;;4853638;29;20089;-70
2021/12/09 11:16:41;;;;;;;2.55;0.80;;;10.20;96.70;;;;;;4853286;29;20531;-70
2021/12/09 11:19:12;;;;;;;1.65;0.60;;;10.30;96.70;;;;;;4866813;29;20045;-70
2021/12/09 11:21:44;;;;;;;0.88;0.63;;;10.30;96.70;;;;;;4871244;29;20096;-70
2021/12/09 11:24:18;;;;;;;2.83;0.90;;;10.40;96.70;;;;;;4851196;29;20049;-70
2021/12/09 11:29:25;;;;;;;1.40;0.98;;;10.70;96.70;;;;;;4867659;29;20421;-70
2021/12/09 11:34:44;;;;;;;1.70;0.75;;;11.00;96.70;;;;;;4870004;29;20314;-70
2021/12/09 11:40:17;;;;;;;0.88;0.60;;;11.20;96.70;;;;;;4845054;29;20072;-70
2021/12/09 11:42:53;;;;;;;1.02;0.60;;;11.20;96.70;;;;;;4871010;29;20416;-70
2021/12/09 11:45:25;;;;;;;1.23;0.57;;;11.10;96.70;;;;;;4873057;29;20056;-70
2021/12/09 11:47:55;;;;;;;1.17;0.80;;;11.10;96.70;;;;;;4864664;29;20514;-74
2021/12/09 11:50:26;;;;;;;0.60;0.40;;;10.90;96.70;;;;;;4872933;29;20060;-71
2021/12/09 11:52:59;;;;;;;0.50;0.30;;;10.60;96.70;;;;;;4853646;29;20085;-71
2021/12/09 11:55:38;;;;;;;0.52;0.50;;;10.50;96.70;;;;;;4872586;29;20053;-71
2021/12/09 12:07:12;;;;;;;4.45;2.80;;;10.50;96.70;;;;;;4872246;29;20057;-71
2021/12/09 12:19:00;;;;;;;2.90;1.98;;;10.40;96.70;;;;;;4813272;29;20054;-71
2021/12/09 12:21:52;;;;;;;4.03;2.85;;;10.40;96.70;;;;;;4814509;29;20670;-71
2021/12/09 12:24:44;;;;;;;2.08;1.83;;;10.40;96.70;;;;;;4814447;29;20075;-71
2021/12/09 12:28:23;;;;;;;1.40;1.02;;;10.40;96.70;;;;;;4813122;29;20145;-71
2021/12/09 12:34:33;;;;;;;1.00;0.70;;;10.30;96.70;;;;;;4811816;29;20108;-71
2021/12/09 12:37:09;;;;;;;2.45;0.68;;;10.30;96.70;;;;;;4807686;29;20387;-71
2021/12/09 12:42:19;;;;;;;1.00;0.75;;;10.30;96.70;;;;;;4810986;29;20128;-70
2021/12/09 12:48:28;;;;;;;1.35;0.80;;;10.30;96.70;;;;;;4813178;29;20058;-70
2021/12/09 12:51:08;;;;;;;1.15;0.70;;;10.30;96.70;;;;;;4852682;29;20072;-70
2021/12/09 12:53:42;;;;;;;1.00;0.90;;;10.30;96.70;;;;;;4866402;29;20053;-70
2021/12/09 12:56:14;;;;;;;2.15;1.15;;;10.30;96.70;;;;;;4868673;29;20128;-71
2021/12/09 12:59:19;;;;;;;3.55;1.65;;;10.20;96.70;;;;;;4871463;29;20073;-70
2021/12/09 13:05:17;;;;;;;2.92;2.00;;;10.10;96.70;;;;;;4869528;29;20109;-71
2021/12/09 13:10:30;;;;;;;2.38;1.45;;;10.10;96.70;;;;;;4867542;29;20085;-71
2021/12/09 13:13:16;;;;;;;1.90;1.15;;;10.10;96.70;;;;;;4870407;29;20049;-71
2021/12/09 13:17:00;;;;;;;2.50;1.80;;;10.10;96.70;;;;;;4872000;29;20051;-71
2021/12/09 13:19:05;;;;;;;2.40;0.95;;;10.10;96.70;;;;;;4860466;29;20067;-71
2021/12/09 13:21:43;;;;;;;;;;;10.10;96.70;;;;;;4870291;29;20052;-71
2021/12/09 13:24:40;;;;;;;3.38;2.25;;;10.20;96.70;;;;;;4853198;29;20404;-71
2021/12/09 13:27:48;;;;;;;3.07;1.70;;;10.20;96.70;;;;;;4870124;29;20623;-71
2021/12/09 13:49:42;;;;;;;3.33;2.10;;;9.00;96.70;;;;;;4871689;29;20052;-71
2021/12/09 13:55:03;;;;;;;5.35;2.10;;;9.10;96.70;;;;;;4870806;29;20276;-71
2021/12/09 13:57:34;;;;;;;2.80;1.35;;;9.20;96.70;;;;;;4852457;29;20056;-71
2021/12/09 14:00:08;;;;;;;2.13;1.10;;;9.20;96.70;;;;;;4871336;29;20045;-71
2021/12/09 14:02:38;;;;;;;1.77;1.17;;;9.30;96.70;;;;;;4868591;29;20056;-71
2021/12/09 14:05:13;;;;;;;1.88;1.02;;;9.30;96.70;;;;;;4854243;29;20530;-71
2021/12/09 14:07:55;;;;;;;12.98;6.78;;;9.30;96.70;;;;;;4869848;29;20060;-70
2021/12/09 14:10:30;;;;;;;8.02;4.57;;;9.30;96.70;;;;;;4867812;29;20497;-70
2021/12/09 14:13:02;;;;;;;7.15;3.58;;;9.20;96.70;;;;;;4869836;29;20461;-70
2021/12/09 14:15:38;;;;;;;4.88;3.28;;;9.20;96.70;;;;;;4870532;29;20068;-71
2021/12/09 14:18:14;;;;;;;5.10;3.20;;;9.20;96.70;;;;;;4870018;29;20049;-71
2021/12/09 14:20:42;;;;;;;5.93;2.58;;;9.30;96.70;;;;;;4870246;29;20060;-71
2021/12/09 14:23:14;;;;;;;6.38;2.55;;;9.30;96.70;;;;;;4852667;29;20069;-71
2021/12/09 14:25:43;;;;;;;8.05;4.30;;;9.10;96.70;;;;;;4870678;29;20056;-70
2021/12/09 14:28:12;;;;;;;6.15;3.28;;;9.00;96.70;;;;;;4868883;29;20504;-71
2021/12/09 14:30:48;;;;;;;6.32;3.03;;;9.00;96.70;;;;;;4870330;29;20072;-71